メインページ
METAR-TAF:

METAR-TAF

空港 :

コフスハーバー, オーストラリア

緯度: 30-19-12S, 経度: 153-07-00E, 海抜: 5m

現時点の気象観測

当レポートは32分前の13:00(UTC)に作成
の風 5kt
気温 22°C
湿度 83%
気圧 1016 hPa
視程10km以上
高度12500ftの雲は散在している

METAR: YCFS 101300Z AUTO 35005KT 9999 // SCT125 22/19 Q1016

時間: 00:32 (13:32 UTC)

予報

当レポートは2時間23分前の11:09(UTC)に作成
予報は10日の 12時(UTC)から 11日の 12時(UTC)まで有効
の風 8kt
視程10km以上
高度3000ftの雲はほとんどない
11日の 00時(UTC)から 11日の 01時(UTC)まで徐々に
東/北東の風 15kt
視程10km以上
高度3000ftの雲は散在している
11日の 0500時(UTC)から
の風 10kt
視程: 5000m
高度3000ftの雲は散在している
高度6000ftの千切れ雲あり
高度1000ftの雲は散在している
高度2000ftの千切れ雲あり
弱いにわか雨, にわか雨
確率 30% :
11日の 06時(UTC)から 11日の 10時(UTC)まで一時的に
変向風 20kt、最大30ktの突風を伴う
視程: 2000m
高度1000ftの千切れ雲あり
高度3000ftの雲は散在している, 積乱雲.
激しい雷雨, 雨

TAF: YCFS 101109Z 1012/1112 35008KT 9999 FEW030 BECMG 1100/1101 06015KT 9999 SCT030 FM110500 09010KT 9999 -SHRA SCT030 BKN060 INTER 1106/1112 5000 SHRA SCT010 BKN020 PROB30 TEMPO 1106/1110 VRB20G30KT 2000 TSRA BKN010 SCT030CB

4,000以上の空港の気象観測と天気予報(METAR報とTAF報)

利用可能な観測所は地図上に黄色い丸と赤い丸で示す。

丸の上にカーソルを重ねると観測所名を参照できる。

次にクリックすると気象観測と天気予報を参照できる。

マップの切り替え:黒色「×」印の緑ボタンをクリックして拡大、「-」印の緑ボタンをクリックして縮小、緑色の三角印をクリックして隣りの地図に切り替え


METAR-TAF: